createdAt,value
2022-11-22T00:01:15.266Z,75.77
2022-11-22T00:03:43.314Z,75.83
2022-11-22T00:06:11.424Z,77.47
2022-11-22T00:08:39.315Z,74.23
2022-11-22T00:11:08.957Z,76.57
2022-11-22T00:13:37.011Z,78.33
2022-11-22T00:16:05.904Z,77.43
2022-11-22T00:18:34.019Z,76.40
2022-11-22T00:21:07.136Z,72.10
2022-11-22T00:23:35.342Z,72.90
2022-11-22T00:26:03.418Z,74.87
2022-11-22T00:28:32.829Z,76.73
2022-11-22T00:31:00.929Z,75.87
2022-11-22T00:33:28.998Z,77.10
2022-11-22T00:35:57.018Z,76.57
2022-11-22T00:38:25.155Z,78.20
2022-11-22T00:40:53.272Z,77.83
2022-11-22T00:43:21.383Z,80.20
2022-11-22T00:45:50.835Z,80.57
2022-11-22T00:48:18.984Z,81.23
2022-11-22T00:50:50.191Z,84.30
2022-11-22T00:53:18.351Z,81.60
2022-11-22T00:55:46.601Z,85.87
2022-11-22T00:58:14.754Z,82.20
2022-11-22T01:00:42.928Z,82.10
2022-11-22T01:03:13.995Z,84.00
2022-11-22T01:05:42.683Z,86.20
2022-11-22T01:08:11.034Z,86.07
2022-11-22T01:10:39.327Z,80.93
2022-11-22T01:13:07.529Z,84.47
2022-11-22T01:15:36.713Z,87.63
2022-11-22T01:18:05.070Z,91.17
2022-11-22T01:20:34.649Z,92.83
2022-11-22T01:23:02.724Z,90.00
2022-11-22T01:25:30.771Z,90.53
2022-11-22T01:27:58.843Z,90.20
2022-11-22T01:30:27.000Z,91.10
2022-11-22T01:32:55.103Z,92.90
2022-11-22T01:35:23.298Z,90.57
2022-11-22T01:37:52.689Z,89.43
2022-11-22T01:40:20.883Z,92.63
2022-11-22T01:42:53.765Z,93.17
2022-11-22T01:45:44.350Z,94.17
2022-11-22T01:48:26.857Z,90.93
2022-11-22T01:50:59.088Z,94.00
2022-11-22T01:53:31.277Z,96.20
2022-11-22T01:56:01.975Z,92.57
2022-11-22T01:58:34.107Z,94.00
2022-11-22T02:01:02.968Z,93.27
2022-11-22T02:03:34.339Z,92.60
2022-11-22T02:06:03.525Z,92.17
2022-11-22T02:08:38.854Z,94.90
2022-11-22T02:11:09.478Z,95.23
2022-11-22T02:13:41.094Z,97.50
2022-11-22T02:16:11.191Z,94.40
2022-11-22T02:18:39.823Z,101.40
2022-11-22T02:21:08.914Z,94.33
2022-11-22T02:23:50.951Z,94.10
2022-11-22T02:26:20.605Z,98.43
2022-11-22T02:28:50.017Z,98.70
2022-11-22T02:31:38.499Z,92.97
2022-11-22T02:34:06.617Z,96.83
2022-11-22T02:36:39.424Z,92.40
2022-11-22T02:39:10.326Z,94.20
2022-11-22T02:41:40.431Z,95.87
2022-11-22T02:44:10.493Z,94.33
2022-11-22T02:46:47.592Z,94.83
2022-11-22T02:49:18.220Z,93.10
2022-11-22T02:51:46.586Z,92.90
2022-11-22T02:54:14.908Z,92.70
2022-11-22T02:56:44.353Z,91.47
2022-11-22T02:59:12.866Z,94.43
2022-11-22T03:01:41.789Z,97.23
2022-11-22T03:04:09.890Z,94.40
2022-11-22T03:06:37.902Z,92.20
2022-11-22T03:09:05.927Z,92.63
2022-11-22T03:11:33.990Z,91.07
2022-11-22T03:14:03.440Z,93.23
2022-11-22T03:16:31.774Z,95.43
2022-11-22T03:18:59.848Z,95.30
2022-11-22T03:21:27.921Z,95.80
2022-11-22T03:23:56.156Z,92.20
2022-11-22T03:26:24.338Z,90.57
2022-11-22T03:28:52.411Z,90.60
2022-11-22T03:31:22.166Z,92.40
2022-11-22T03:33:50.225Z,92.70
2022-11-22T03:36:18.387Z,91.63
2022-11-22T03:38:46.544Z,91.67
2022-11-22T03:41:14.719Z,91.80
2022-11-22T03:43:42.799Z,90.53
2022-11-22T03:46:15.736Z,90.07
2022-11-22T03:48:45.221Z,92.40
2022-11-22T03:51:13.356Z,91.70
2022-11-22T03:53:41.485Z,93.27
2022-11-22T03:56:10.550Z,89.97
2022-11-22T03:58:38.618Z,88.03
2022-11-22T04:01:08.212Z,86.97
2022-11-22T04:03:38.828Z,91.17
2022-11-22T04:06:08.367Z,92.17
2022-11-22T04:08:36.268Z,94.77
2022-11-22T04:11:04.603Z,89.50
2022-11-22T04:13:46.593Z,86.90
2022-11-22T04:16:14.682Z,86.20
2022-11-22T04:18:42.781Z,84.77
2022-11-22T04:21:29.477Z,89.63
2022-11-22T04:24:11.459Z,87.40
2022-11-22T04:26:39.591Z,88.07
2022-11-22T04:29:10.363Z,84.97
2022-11-22T04:31:56.169Z,86.20
2022-11-22T04:34:24.402Z,87.00
2022-11-22T04:36:53.905Z,85.50
2022-11-22T04:39:21.987Z,86.37
2022-11-22T04:42:12.472Z,86.63
2022-11-22T04:44:42.492Z,86.30
2022-11-22T04:47:11.024Z,84.27
2022-11-22T04:49:39.150Z,88.60
2022-11-22T04:52:27.619Z,86.40
2022-11-22T04:54:55.781Z,87.30
2022-11-22T04:57:24.015Z,85.37
2022-11-22T04:59:52.041Z,85.53
2022-11-22T05:02:20.145Z,84.63
2022-11-22T05:04:50.822Z,83.90
2022-11-22T05:07:20.576Z,81.40
2022-11-22T05:09:48.711Z,80.47
2022-11-22T05:12:16.875Z,76.50
2022-11-22T05:14:44.973Z,74.27
2022-11-22T05:17:13.773Z,78.27
2022-11-22T05:19:46.437Z,76.93
2022-11-22T05:22:17.464Z,80.80
2022-11-22T05:24:46.041Z,73.73
2022-11-22T05:27:14.161Z,73.80
2022-11-22T05:29:42.268Z,70.57
2022-11-22T05:32:10.415Z,71.47
2022-11-22T05:34:38.492Z,69.77
2022-11-22T05:37:06.672Z,71.37
2022-11-22T05:39:34.839Z,71.57
2022-11-22T05:42:05.937Z,73.00
2022-11-22T05:44:35.383Z,70.80
2022-11-22T05:47:03.530Z,69.80
2022-11-22T05:49:33.711Z,70.37
2022-11-22T05:52:01.842Z,71.87
2022-11-22T05:54:30.261Z,71.37
2022-11-22T05:56:58.320Z,76.50
2022-11-22T05:59:28.128Z,69.43
2022-11-22T06:01:56.479Z,73.33
2022-11-22T06:04:24.589Z,71.47
2022-11-22T06:06:52.808Z,71.40
2022-11-22T06:09:20.806Z,72.60
2022-11-22T06:11:48.908Z,73.77
2022-11-22T06:14:17.183Z,69.97
2022-11-22T06:16:46.627Z,71.87
2022-11-22T06:19:14.711Z,71.10
2022-11-22T06:21:42.811Z,68.70
2022-11-22T06:24:11.560Z,68.43
2022-11-22T06:26:39.746Z,67.90
2022-11-22T06:29:07.807Z,65.80
2022-11-22T06:31:35.976Z,65.03
2022-11-22T06:34:06.340Z,64.53
2022-11-22T06:36:35.776Z,65.10
2022-11-22T06:39:04.880Z,64.37
2022-11-22T06:41:34.783Z,63.43
2022-11-22T06:44:06.446Z,61.90
2022-11-22T06:46:35.262Z,65.20
2022-11-22T06:49:04.810Z,62.63
2022-11-22T06:51:33.818Z,63.43
2022-11-22T06:54:02.146Z,63.47
2022-11-22T06:56:31.921Z,62.20
2022-11-22T06:59:03.139Z,62.23
2022-11-22T07:01:32.282Z,64.37
2022-11-22T07:04:01.293Z,65.25
2022-11-22T07:06:32.997Z,63.27
2022-11-22T07:09:01.503Z,66.70
2022-11-22T07:11:31.555Z,63.50
2022-11-22T07:14:06.906Z,59.60
2022-11-22T07:16:37.367Z,61.60
2022-11-22T07:19:05.796Z,62.20
2022-11-22T07:21:37.718Z,61.30
2022-11-22T07:24:07.113Z,60.50
2022-11-22T07:26:35.324Z,58.57
2022-11-22T07:29:03.638Z,54.70
2022-11-22T07:31:31.768Z,55.83
2022-11-22T07:34:00.050Z,53.50
2022-11-22T07:36:29.500Z,51.20
2022-11-22T07:38:59.327Z,52.07
2022-11-22T07:41:27.457Z,52.70
2022-11-22T07:43:55.760Z,51.93
2022-11-22T07:46:26.369Z,49.37
2022-11-22T07:48:54.550Z,51.37
2022-11-22T07:51:22.986Z,52.80
2022-11-22T07:53:51.129Z,51.00
2022-11-22T07:56:20.720Z,49.90
2022-11-22T07:58:48.999Z,48.37
2022-11-22T08:01:18.958Z,50.60
2022-11-22T08:03:47.712Z,51.67
2022-11-22T08:06:16.544Z,51.30
2022-11-22T08:08:44.458Z,53.20
2022-11-22T08:11:13.128Z,51.93
2022-11-22T08:13:42.754Z,52.00
2022-11-22T08:16:13.196Z,50.43
2022-11-22T08:18:42.286Z,51.10
2022-11-22T08:21:12.518Z,50.10
2022-11-22T08:23:41.285Z,49.70
2022-11-22T08:26:12.436Z,49.50
2022-11-22T08:28:42.461Z,51.17
2022-11-22T08:31:12.354Z,50.10
2022-11-22T08:33:40.857Z,49.23
2022-11-22T08:36:09.528Z,49.07
2022-11-22T08:38:37.725Z,52.23
2022-11-22T08:41:07.725Z,50.00
2022-11-22T08:43:35.871Z,48.90
2022-11-22T08:46:06.183Z,45.77
2022-11-22T08:48:36.858Z,48.20
2022-11-22T08:51:06.885Z,43.93
2022-11-22T08:53:37.145Z,44.37
2022-11-22T08:56:09.611Z,43.60
2022-11-22T08:58:37.926Z,44.67
2022-11-22T09:01:08.943Z,46.17
2022-11-22T09:03:37.698Z,44.17
2022-11-22T09:09:08.773Z,38.77
2022-11-22T09:11:43.484Z,40.80
2022-11-22T09:14:11.541Z,42.37
2022-11-22T09:16:41.024Z,39.77
2022-11-22T09:19:09.840Z,41.60
2022-11-22T09:21:37.933Z,42.57
2022-11-22T09:24:06.926Z,39.90
2022-11-22T09:26:35.125Z,37.37
2022-11-22T09:29:03.232Z,37.90
2022-11-22T09:31:32.444Z,36.90
2022-11-22T09:34:01.864Z,36.57
2022-11-22T09:36:30.901Z,36.63
2022-11-22T09:38:59.535Z,35.33
2022-11-22T09:42:05.088Z,39.63
2022-11-22T09:44:43.474Z,35.60
2022-11-22T09:47:20.516Z,33.27
2022-11-22T09:50:02.923Z,33.70
2022-11-22T09:52:36.060Z,33.53
2022-11-22T09:55:08.237Z,32.20
2022-11-22T09:57:46.946Z,32.97
2022-11-22T10:00:21.272Z,34.50
2022-11-22T10:03:00.286Z,31.50
2022-11-22T10:05:34.617Z,31.57
2022-11-22T10:08:12.592Z,31.37
2022-11-22T10:10:43.992Z,31.33
2022-11-22T10:13:16.425Z,31.33
2022-11-22T10:15:52.200Z,31.10
2022-11-22T10:18:28.295Z,31.33
2022-11-22T10:20:58.015Z,30.50
2022-11-22T10:23:27.369Z,30.47
2022-11-22T10:25:59.254Z,31.13
2022-11-22T10:28:35.406Z,30.33
2022-11-22T10:31:09.209Z,30.70
2022-11-22T10:33:44.880Z,29.60
2022-11-22T10:36:29.573Z,29.53
2022-11-22T10:39:13.813Z,30.43
2022-11-22T10:41:54.305Z,30.70
2022-11-22T10:44:35.852Z,32.00
2022-11-22T10:47:31.595Z,32.33
2022-11-22T10:50:07.412Z,31.63
2022-11-22T10:52:46.682Z,32.40
2022-11-22T10:55:29.260Z,30.77
2022-11-22T10:58:06.722Z,30.40
2022-11-22T11:00:39.438Z,29.30
2022-11-22T11:03:16.952Z,28.30
2022-11-22T11:06:15.701Z,26.80
2022-11-22T11:09:23.476Z,26.30
2022-11-22T11:11:32.011Z,25.40
2022-11-22T11:14:05.654Z,25.60
2022-11-22T11:16:37.841Z,25.80
2022-11-22T11:19:17.311Z,25.73
2022-11-22T11:21:45.577Z,24.47
2022-11-22T11:24:17.112Z,24.40
2022-11-22T11:26:52.898Z,23.30
2022-11-22T11:29:38.370Z,24.03
2022-11-22T11:32:12.324Z,23.63
2022-11-22T11:34:42.559Z,23.57
2022-11-22T11:37:23.104Z,24.63
2022-11-22T11:39:52.793Z,23.90
2022-11-22T11:42:29.038Z,23.70
2022-11-22T11:45:27.050Z,23.00
2022-11-22T11:47:55.111Z,23.60
2022-11-22T11:50:25.063Z,23.07
2022-11-22T11:52:55.798Z,23.47
2022-11-22T11:55:24.669Z,23.60
2022-11-22T11:57:54.184Z,24.23
2022-11-22T12:00:28.699Z,23.63
2022-11-22T12:03:02.100Z,23.93
2022-11-22T12:05:32.480Z,24.07
2022-11-22T12:08:02.094Z,23.97
2022-11-22T12:10:34.840Z,23.17
2022-11-22T12:13:11.111Z,22.57
2022-11-22T12:15:47.935Z,22.80
2022-11-22T12:18:31.809Z,23.10
2022-11-22T12:21:06.504Z,23.50
2022-11-22T12:23:39.455Z,23.07
2022-11-22T12:26:07.588Z,23.70
2022-11-22T12:28:35.968Z,23.17
2022-11-22T12:31:14.826Z,23.63
2022-11-22T12:33:44.959Z,23.60
2022-11-22T12:36:18.785Z,22.93
2022-11-22T12:38:50.444Z,23.03
2022-11-22T12:41:22.267Z,23.53
2022-11-22T12:43:55.333Z,23.80
2022-11-22T12:46:29.073Z,22.93
2022-11-22T12:49:00.709Z,23.10
2022-11-22T12:51:35.802Z,22.73
2022-11-22T12:54:10.132Z,22.53
2022-11-22T12:56:46.708Z,22.53
2022-11-22T12:59:26.046Z,22.87
2022-11-22T13:02:05.799Z,22.53
2022-11-22T13:04:43.371Z,23.37
2022-11-22T13:07:17.264Z,23.33
2022-11-22T13:09:52.705Z,22.20
2022-11-22T13:12:27.850Z,21.20
2022-11-22T13:14:56.920Z,21.57
2022-11-22T13:17:31.269Z,20.57
2022-11-22T13:20:04.705Z,20.90
2022-11-22T13:22:41.770Z,21.80
2022-11-22T13:25:26.925Z,21.00
2022-11-22T13:27:59.261Z,21.57
2022-11-22T13:30:29.751Z,21.63
2022-11-22T13:33:01.324Z,21.40
2022-11-22T13:35:32.626Z,21.53
2022-11-22T13:38:03.815Z,21.83
2022-11-22T13:40:35.030Z,22.37
2022-11-22T13:43:40.442Z,22.83
2022-11-22T13:46:51.767Z,22.20
2022-11-22T13:49:37.412Z,20.60
2022-11-22T13:52:43.907Z,21.17
2022-11-22T13:55:34.772Z,20.17
2022-11-22T13:58:54.600Z,20.60
2022-11-22T14:01:51.919Z,20.47
2022-11-22T14:04:28.424Z,20.40
2022-11-22T14:07:03.063Z,19.73
2022-11-22T14:09:44.216Z,20.20
2022-11-22T14:12:33.148Z,20.40
2022-11-22T14:15:35.500Z,19.63
2022-11-22T14:18:21.065Z,20.20
2022-11-22T14:21:01.507Z,20.70
2022-11-22T14:23:41.883Z,20.17
2022-11-22T14:26:21.145Z,21.73
2022-11-22T14:29:25.692Z,20.93
2022-11-22T14:31:57.917Z,20.80
2022-11-22T14:34:27.835Z,20.23
2022-11-22T14:37:33.753Z,20.20
2022-11-22T14:40:17.679Z,20.47
2022-11-22T14:42:51.993Z,21.27
2022-11-22T14:45:26.164Z,21.37
2022-11-22T14:48:06.626Z,22.17
2022-11-22T14:50:42.773Z,20.77
2022-11-22T14:53:22.808Z,21.37
2022-11-22T14:55:57.394Z,21.73
2022-11-22T14:58:29.334Z,23.23
2022-11-22T15:01:24.799Z,25.17
2022-11-22T15:09:09.895Z,26.60
2022-11-22T15:09:22.563Z,28.57
2022-11-22T15:11:28.307Z,29.07
2022-11-22T15:14:24.072Z,28.73
2022-11-22T15:57:34.415Z,39.23
2022-11-22T16:00:03.090Z,39.87
2022-11-22T16:02:33.250Z,40.07
2022-11-22T16:06:04.716Z,39.23
2022-11-22T16:07:52.771Z,42.23
2022-11-22T16:10:24.220Z,40.20
2022-11-22T16:12:53.691Z,38.33
2022-11-22T16:15:36.173Z,39.30
2022-11-22T16:18:17.076Z,38.57
2022-11-22T16:21:01.512Z,38.23
2022-11-22T16:23:31.886Z,36.77
2022-11-22T16:26:13.535Z,40.53
2022-11-22T16:28:41.744Z,44.53
2022-11-22T16:31:19.196Z,45.30
2022-11-22T16:33:49.101Z,50.53
2022-11-22T16:36:19.014Z,49.10
2022-11-22T16:38:47.607Z,50.37
2022-11-22T16:41:20.608Z,50.63
2022-11-22T16:43:51.126Z,53.95
2022-11-22T16:46:20.202Z,51.90
2022-11-22T16:48:50.148Z,54.63
2022-11-22T16:51:22.207Z,55.43
2022-11-22T16:53:51.819Z,56.60
2022-11-22T16:56:21.612Z,58.43
2022-11-22T16:58:51.249Z,55.67
2022-11-22T17:01:26.706Z,55.90
2022-11-22T17:03:57.910Z,56.33
2022-11-22T17:06:27.881Z,53.60
2022-11-22T17:08:57.608Z,56.70
2022-11-22T17:11:27.898Z,54.00
2022-11-22T17:13:57.524Z,54.07
2022-11-22T17:16:25.862Z,51.83
2022-11-22T17:18:54.217Z,55.90
2022-11-22T17:21:31.346Z,57.23
2022-11-22T17:24:05.091Z,53.33
2022-11-22T17:26:34.909Z,48.87
2022-11-22T17:29:03.298Z,56.00
2022-11-22T17:31:32.113Z,51.90
2022-11-22T17:34:00.915Z,50.40
2022-11-22T17:36:32.700Z,53.13
2022-11-22T17:39:03.130Z,52.50
2022-11-22T17:41:33.079Z,50.40
2022-11-22T17:44:02.039Z,49.70
2022-11-22T17:46:31.690Z,50.93
2022-11-22T17:49:01.854Z,55.13
2022-11-22T17:51:32.582Z,53.60
2022-11-22T17:54:00.995Z,54.22
2022-11-22T17:56:30.545Z,56.47
2022-11-22T17:58:59.011Z,53.10
2022-11-22T18:01:27.707Z,51.57
2022-11-22T18:03:56.135Z,54.40
2022-11-22T18:06:26.568Z,54.13
2022-11-22T18:08:56.229Z,55.47
2022-11-22T18:11:24.675Z,51.43
2022-11-22T18:13:52.720Z,53.40
2022-11-22T18:16:22.342Z,55.07
2022-11-22T18:18:58.580Z,54.57
2022-11-22T18:21:29.256Z,57.60
2022-11-22T18:23:59.721Z,57.40
2022-11-22T18:26:43.698Z,57.00
2022-11-22T18:32:03.514Z,59.70
2022-11-22T18:34:32.185Z,58.20
2022-11-22T18:37:02.973Z,58.30
2022-11-22T18:39:36.846Z,58.33
2022-11-22T18:42:06.849Z,56.57
2022-11-22T18:44:35.443Z,59.53
2022-11-22T18:47:04.057Z,58.10
2022-11-22T18:49:33.057Z,57.07
2022-11-22T18:52:01.659Z,55.87
2022-11-22T18:54:30.488Z,54.67
2022-11-22T18:57:00.625Z,56.40
2022-11-22T18:59:29.042Z,54.20
2022-11-22T19:01:57.547Z,55.37
2022-11-22T19:04:26.123Z,54.10
2022-11-22T19:06:55.548Z,53.50
2022-11-22T19:09:23.750Z,54.50
2022-11-22T19:11:58.259Z,53.13
2022-11-22T19:14:29.762Z,51.17
2022-11-22T19:16:58.575Z,53.50
2022-11-22T19:19:27.772Z,54.57
2022-11-22T19:21:56.349Z,57.10
2022-11-22T19:24:24.726Z,55.20
2022-11-22T19:26:53.229Z,60.30
2022-11-22T19:29:22.314Z,56.97
2022-11-22T19:31:52.279Z,59.07
2022-11-22T19:34:20.626Z,61.57
2022-11-22T19:36:49.024Z,60.13
2022-11-22T19:39:19.997Z,61.00
2022-11-22T19:41:48.338Z,60.90
2022-11-22T19:44:16.919Z,64.20
2022-11-22T19:46:45.446Z,63.27
2022-11-22T19:49:15.355Z,65.23
2022-11-22T19:51:43.771Z,66.80
2022-11-22T19:54:12.473Z,62.30
2022-11-22T19:56:42.026Z,64.67
2022-11-22T19:59:15.636Z,66.03
2022-11-22T20:01:44.694Z,64.33
2022-11-22T20:04:16.544Z,65.17
2022-11-22T20:06:49.920Z,64.70
2022-11-22T20:09:18.608Z,68.43
2022-11-22T20:11:47.430Z,70.90
2022-11-22T20:14:15.997Z,67.50
2022-11-22T20:16:44.556Z,67.30
2022-11-22T20:19:15.451Z,69.90
2022-11-22T20:21:44.004Z,70.70
2022-11-22T20:24:13.500Z,73.70
2022-11-22T20:26:42.716Z,70.30
2022-11-22T20:29:15.237Z,69.33
2022-11-22T20:31:44.042Z,68.33
2022-11-22T20:34:13.896Z,70.93
2022-11-22T20:36:43.877Z,69.90
2022-11-22T20:39:12.118Z,67.10
2022-11-22T20:41:41.464Z,70.97
2022-11-22T20:44:13.278Z,70.60
2022-11-22T20:46:41.815Z,71.23
2022-11-22T20:49:10.073Z,73.77
2022-11-22T20:51:39.860Z,69.20
2022-11-22T20:54:10.686Z,68.90
2022-11-22T20:56:39.635Z,72.77
2022-11-22T20:59:08.056Z,75.13
2022-11-22T21:01:36.581Z,73.30
2022-11-22T21:04:04.827Z,72.13
2022-11-22T21:06:35.069Z,74.87
2022-11-22T21:09:03.119Z,78.07
2022-11-22T21:11:32.601Z,74.27
2022-11-22T21:14:00.707Z,74.30
2022-11-22T21:16:30.723Z,76.20
2022-11-22T21:19:01.154Z,74.50
2022-11-22T21:21:30.616Z,77.40
2022-11-22T21:24:00.360Z,74.80
2022-11-22T21:26:29.350Z,74.13
2022-11-22T21:29:00.424Z,75.03
2022-11-22T21:31:29.253Z,74.70
2022-11-22T21:33:57.719Z,73.60
2022-11-22T21:36:26.352Z,78.83
2022-11-22T21:38:55.135Z,77.70
2022-11-22T21:41:39.375Z,79.50
2022-11-22T21:44:10.592Z,76.00
2022-11-22T21:46:39.098Z,80.80
2022-11-22T21:49:07.701Z,82.63
2022-11-22T21:51:35.804Z,81.47
2022-11-22T21:54:05.135Z,76.80
2022-11-22T21:56:33.431Z,75.30
2022-11-22T21:59:01.596Z,73.83
2022-11-22T22:01:31.160Z,73.67
2022-11-22T22:03:59.347Z,74.53
2022-11-22T22:06:27.463Z,75.07
2022-11-22T22:08:55.814Z,72.50
2022-11-22T22:11:23.993Z,76.93
2022-11-22T22:13:54.066Z,74.00
2022-11-22T22:16:26.053Z,74.20
2022-11-22T22:18:55.573Z,75.33
2022-11-22T22:21:23.676Z,76.80
2022-11-22T22:23:51.851Z,72.70
2022-11-22T22:26:20.542Z,78.10
2022-11-22T22:28:48.675Z,77.97
2022-11-22T22:31:21.537Z,74.87
2022-11-22T22:33:51.103Z,78.83
2022-11-22T22:36:20.664Z,82.80
2022-11-22T22:38:48.996Z,79.63
2022-11-22T22:41:17.338Z,76.77
2022-11-22T22:43:46.686Z,77.47
2022-11-22T22:46:17.429Z,92.60
2022-11-22T22:48:46.055Z,76.73
2022-11-22T22:51:15.683Z,79.67
2022-11-22T22:53:45.880Z,75.30
2022-11-22T22:56:15.801Z,83.50
2022-11-22T22:58:44.277Z,81.67
2022-11-22T23:01:15.027Z,76.63
2022-11-22T23:03:43.185Z,85.23
2022-11-22T23:06:13.052Z,79.70
2022-11-22T23:08:44.714Z,85.70
2022-11-22T23:11:14.351Z,78.47
2022-11-22T23:13:43.851Z,85.50
2022-11-22T23:16:13.979Z,78.50
2022-11-22T23:18:43.533Z,79.70
2022-11-22T23:21:14.128Z,83.03
2022-11-22T23:23:42.356Z,78.97
2022-11-22T23:26:11.896Z,83.00
2022-11-22T23:28:41.422Z,83.20
2022-11-22T23:31:11.394Z,84.97
2022-11-22T23:33:40.011Z,85.77
2022-11-22T23:36:10.206Z,86.77
2022-11-22T23:38:38.687Z,87.17
2022-11-22T23:41:07.351Z,85.67
2022-11-22T23:43:35.626Z,89.20
2022-11-22T23:46:05.221Z,88.93
2022-11-22T23:48:33.295Z,86.67
2022-11-22T23:51:04.663Z,89.50
2022-11-22T23:53:32.839Z,85.43
2022-11-22T23:56:05.955Z,84.40
2022-11-22T23:58:34.203Z,86.57
